Aérodrome :
LOGIN :

S'inscrire | Disclaimer

   EN    FR    IT 

 










Légende :    VFR   VFR Marginal   IFR   IFR Intensif   IFR Très Intensif
Visi : 
Plafond : 
>= 8 km
>= 3000ft
5 à 8 km
1000 à 3000 ft
1500m à 5 km
500 à 1000 ft
800 à 1500m
200 à 500 ft
< 800m
< 200 ft
Symboles :   Orages  Brouillard  Fortes neiges  Fortes précipitations  Vent > 20 kt
SIGMETs :   Divers  Orages  Givrage  Turbulence  Onde Orograph.  Cendres Volcan.






- Altitude de l'aérodrome : 1302 ft
- Code IATA : GNB


LFLS - Grenoble / St. Geoirs

DERNIER METAR :
  • 271430Z AUTO 18017KT 150V210 9999 FEW023 SCT036 OVC045 08/03 Q1006 TEMPO 19020G35KT 4000 SHRA BKN022 FEW025TCU

METARs EXPIRÉS :
  • 271400Z AUTO 19019KT 9999 OVC044 07/03 Q1006 TEMPO 4000 SHRA FEW020TCU BKN022 BECMG 21015G30KT
  • 271330Z AUTO 18021G31KT 9999 OVC045 06/03 Q1006 TEMPO 4000 SHRA FEW020TCU BKN022
  • 271300Z AUTO 18020G31KT 9999 -RA OVC046/// ///TCU 06/02 Q1006 BECMG BKN050
  • 271230Z AUTO 18016G26KT 150V210 9999 FEW039 OVC047 06/02 Q1007 TEMPO 21025G40KT
  • 271200Z AUTO 17015KT 140V200 9999 FEW027 OVC047 06/02 Q1007 TEMPO 21025G40KT

TAF TAF LFLS
Valide du 27 à 15h jusqu'au 28 à 15h UTC


271400Z 2715/2815 19015KT 9999 BKN045
TEMPO 2715/2717 19020G35KT
TEMPO 2715/2720 4000 SHRA BKN022 FEW025TCU
BECMG 2717/2719 34010KT
PROB40
TEMPO 2718/2720 34015G25KT
BECMG 2801/2803 VRB03KT CAVOK
ATIS : +33 4 76 65 55 89



MET'MAP, la Météo Aéronautique d'un coup d'oeil ! - Copyright ORBIFLY Décembre 2007 - Disclaimer

ORBIFLY MET'MAP TEAM :

Programmation & Développement : Alexandra Zaïnal
Sur une idée originale de : Baudouin d'Aumeries
Assistance à la programmation : Marc-Olivier Méhu
Soutien technique & logistique : Manuel Goepfert

Contact : metmap@orbifly.com




SOURCES & CREDITS :

   NOAA